Time;durP1;ratioP1;P1;durP2;ratioP2;P2;SDS_P1;SDS_P2;PMS_P1;PMS_P2;Temp;Humidity;BMP_temperature;BMP_pressure;BME280_temperature;BME280_humidity;BME280_pressure;Samples;Min_cycle;Max_cycle;Signal;HPM_P1;HPM_P2
2021/01/03 06:00:54;;;;;;;21.37;12.17;;;2.00;98.70;;;;;;6300642;22;21324;31
2021/01/03 06:03:31;;;;;;;19.77;12.50;;;2.00;98.80;;;;;;6290027;22;20024;-80
2021/01/03 06:06:15;;;;;;;20.33;12.48;;;2.10;99.00;;;;;;6284399;22;20317;-82
2021/01/03 06:08:43;;;;;;;24.13;14.15;;;1.90;98.90;;;;;;6292231;22;20023;-82
2021/01/03 06:11:19;;;;;;;20.70;12.30;;;2.00;98.70;;;;;;6260723;22;20020;-81
2021/01/03 06:13:49;;;;;;;20.58;12.77;;;2.10;98.60;;;;;;6285386;22;20106;-81
2021/01/03 06:16:39;;;;;;;20.83;12.25;;;2.30;98.50;;;;;;6256172;22;20016;-81
2021/01/03 06:19:44;;;;;;;19.40;12.65;;;2.20;98.50;;;;;;6286766;22;20024;-80
2021/01/03 06:22:27;;;;;;;20.58;12.80;;;2.30;98.50;;;;;;6287892;22;20024;-81
2021/01/03 06:24:55;;;;;;;20.48;12.07;;;2.20;98.50;;;;;;6283233;22;20020;-78
2021/01/03 06:35:32;;;;;;;21.05;12.90;;;2.30;98.10;;;;;;6326678;22;20007;-81
2021/01/03 06:52:23;;;;;;;22.20;13.30;;;2.40;98.20;;;;;;6357383;22;20027;-83
2021/01/03 07:38:33;;;;;;;24.30;13.70;;;2.20;98.50;;;;;;6321660;22;20019;-81
2021/01/03 07:41:07;;;;;;;22.77;13.38;;;2.20;98.50;;;;;;6323501;22;20023;-81
2021/01/03 07:44:00;;;;;;;22.58;14.80;;;2.30;98.40;;;;;;6329860;22;20026;-81
2021/01/03 07:46:55;;;;;;;22.90;13.00;;;2.20;98.30;;;;;;6312581;22;20015;-82
2021/01/03 07:49:42;;;;;;;20.67;13.35;;;2.20;98.50;;;;;;6334571;22;20015;-81
2021/01/03 07:52:44;;;;;;;23.20;13.43;;;2.10;98.50;;;;;;6334159;22;20010;-81
2021/01/03 07:55:34;;;;;;;23.85;13.85;;;2.10;98.50;;;;;;6304250;22;20020;-81
2021/01/03 07:58:05;;;;;;;26.00;14.32;;;2.20;98.60;;;;;;6329547;22;20054;-79
2021/01/03 08:00:34;;;;;;;24.13;14.52;;;2.10;98.50;;;;;;6327146;22;19999;-80
2021/01/03 08:03:07;;;;;;;23.67;13.82;;;2.30;98.50;;;;;;6308459;22;20045;-80
2021/01/03 08:05:35;;;;;;;24.38;13.52;;;2.30;98.40;;;;;;6308232;22;20031;-79
2021/01/03 08:08:11;;;;;;;23.73;13.82;;;2.30;98.20;;;;;;6309635;22;20039;-80
2021/01/03 08:10:38;;;;;;;23.58;13.60;;;2.40;98.30;;;;;;6313666;22;20019;-80
2021/01/03 08:13:21;;;;;;;22.77;14.00;;;2.50;98.40;;;;;;6319509;22;20043;-81
2021/01/03 08:16:00;;;;;;;21.15;13.27;;;2.50;98.20;;;;;;6325014;22;20019;-82
2021/01/03 08:18:29;;;;;;;21.98;13.70;;;2.50;98.00;;;;;;6318436;22;20023;-81
2021/01/03 08:21:06;;;;;;;22.13;13.98;;;2.50;98.00;;;;;;6314457;22;20026;-82
2021/01/03 08:23:35;;;;;;;22.23;13.10;;;2.50;98.00;;;;;;6316158;22;20457;-82
2021/01/03 08:26:21;;;;;;;21.52;13.60;;;2.50;97.90;;;;;;6289296;22;20015;-82
2021/01/03 08:28:59;;;;;;;20.55;12.70;;;2.60;97.80;;;;;;6314394;22;20389;-82
2021/01/03 08:31:28;;;;;;;21.23;13.25;;;2.50;97.90;;;;;;6317362;22;20456;-83
2021/01/03 08:34:06;;;;;;;23.50;13.57;;;2.50;98.10;;;;;;6318841;22;20030;-82
2021/01/03 08:36:38;;;;;;;23.13;14.07;;;2.40;98.00;;;;;;6321396;22;20053;-83
2021/01/03 08:39:09;;;;;;;22.95;14.40;;;2.40;98.00;;;;;;6315346;22;20480;-81
2021/01/03 08:41:49;;;;;;;25.15;15.50;;;2.30;98.20;;;;;;6315216;22;20069;-81
2021/01/03 08:50:15;;;;;;;25.52;14.73;;;2.10;98.70;;;;;;6327892;22;20026;-81
2021/01/03 08:52:43;;;;;;;26.48;15.70;;;2.10;98.60;;;;;;6315201;22;20438;-81
2021/01/03 08:55:19;;;;;;;25.60;14.60;;;2.10;98.80;;;;;;6315979;22;20028;-82
2021/01/03 08:58:09;;;;;;;25.33;15.18;;;2.10;98.80;;;;;;6296459;22;20019;-82
2021/01/03 09:00:51;;;;;;;21.05;12.98;;;2.30;98.70;;;;;;6291843;22;20019;-82
2021/01/03 09:03:26;;;;;;;22.75;13.18;;;2.20;98.30;;;;;;6323357;22;20045;-82
2021/01/03 09:05:55;;;;;;;23.50;13.65;;;2.30;98.40;;;;;;6296895;22;20038;-82
2021/01/03 09:08:30;;;;;;;23.00;12.77;;;2.10;98.30;;;;;;6323663;22;20000;-83
2021/01/03 09:11:08;;;;;;;21.90;13.15;;;2.30;98.40;;;;;;6293988;22;20091;-81
2021/01/03 09:13:45;;;;;;;21.98;13.27;;;2.20;98.20;;;;;;6293447;22;20484;-81
2021/01/03 09:57:49;;;;;;;23.17;13.00;;;2.30;97.90;;;;;;6279478;22;20018;-79
2021/01/03 10:21:17;;;;;;;20.35;12.88;;;2.40;98.00;;;;;;6308582;22;20023;-80
2021/01/03 10:26:40;;;;;;;22.13;13.07;;;2.70;98.00;;;;;;6296218;22;20019;-83
2021/01/03 10:31:45;;;;;;;21.17;13.27;;;2.70;97.30;;;;;;6325826;22;20015;-83
2021/01/03 10:34:15;;;;;;;21.55;13.10;;;2.90;97.40;;;;;;6367336;22;20048;-83
2021/01/03 10:39:18;;;;;;;23.55;13.50;;;2.70;96.70;;;;;;6322451;22;20006;-81
2021/01/03 10:47:09;;;;;;;21.60;12.82;;;2.80;96.90;;;;;;6311591;22;20907;-80
2021/01/03 10:52:17;;;;;;;19.52;12.25;;;2.90;96.50;;;;;;6323222;22;20019;-81
2021/01/03 10:54:48;;;;;;;17.10;10.45;;;2.80;96.30;;;;;;6334018;22;20027;-81
2021/01/03 10:57:16;;;;;;;17.58;10.38;;;2.80;95.80;;;;;;6326730;22;20074;-82
2021/01/03 10:59:45;;;;;;;16.83;10.90;;;2.80;95.80;;;;;;6357466;22;20003;-82
2021/01/03 11:25:32;;;;;;;20.92;11.75;;;3.20;95.70;;;;;;6332752;22;20007;-82
2021/01/03 11:28:01;;;;;;;21.55;12.80;;;3.30;95.40;;;;;;6332114;22;20022;-82
2021/01/03 11:35:47;;;;;;;19.90;11.90;;;3.30;95.10;;;;;;6354539;22;20035;-84
2021/01/03 11:38:15;;;;;;;19.02;11.70;;;3.20;95.40;;;;;;6368426;22;20037;-82
2021/01/03 11:56:25;;;;;;;18.92;11.50;;;3.20;95.40;;;;;;6344534;22;20003;-82
2021/01/03 11:58:56;;;;;;;20.20;12.38;;;3.30;95.20;;;;;;6314188;22;20019;-83
2021/01/03 12:01:28;;;;;;;22.25;12.25;;;3.40;95.20;;;;;;6367081;22;20062;-83
2021/01/03 12:17:44;;;;;;;19.23;12.07;;;3.20;95.30;;;;;;6327482;22;20060;-82
2021/01/03 12:22:56;;;;;;;19.08;11.77;;;3.00;95.50;;;;;;6304406;22;20008;-81
2021/01/03 12:25:24;;;;;;;19.95;11.88;;;3.10;95.70;;;;;;6297214;22;20019;-81
2021/01/03 12:28:10;;;;;;;20.70;12.35;;;3.20;95.80;;;;;;6304704;22;20004;-83
2021/01/03 14:44:36;;;;;;;19.50;11.70;;;3.10;95.50;;;;;;6286683;22;20259;-81
2021/01/03 17:53:16;;;;;;;23.95;14.35;;;3.70;96.30;;;;;;6307435;22;20059;-79
2021/01/03 17:55:43;;;;;;;26.27;15.60;;;3.70;96.30;;;;;;6313446;22;20049;-79
2021/01/03 18:20:28;;;;;;;43.47;23.85;;;3.70;96.30;;;;;;6270685;22;20032;-82
